Time;durP1;ratioP1;P1;durP2;ratioP2;P2;SDS_P1;SDS_P2;PMS_P1;PMS_P2;Temp;Humidity;BMP_temperature;BMP_pressure;BME280_temperature;BME280_humidity;BME280_pressure;Samples;Min_cycle;Max_cycle;Signal;HPM_P1;HPM_P2
2023/12/29 00:04:19;;;;;;;50.80;44.95;;;;;;;;;;10116095;28;20047;-75
2023/12/29 00:09:12;;;;;;;57.22;50.97;;;;;;;;;;10127825;28;20116;-75
2023/12/29 00:14:04;;;;;;;57.20;48.70;;;;;;;;;;10110852;28;20052;-75
2023/12/29 00:18:56;;;;;;;53.80;46.85;;;;;;;;;;10109955;28;20114;-75
2023/12/29 00:23:48;;;;;;;56.00;48.25;;;;;;;;;;10111495;28;20463;-75
2023/12/29 00:28:40;;;;;;;63.20;52.90;;;;;;;;;;10110627;28;20064;-74
2023/12/29 00:33:32;;;;;;;61.35;47.88;;;;;;;;;;10114116;28;20037;-75
2023/12/29 00:38:27;;;;;;;55.92;47.25;;;;;;;;;;10118999;28;20055;-75
2023/12/29 00:43:19;;;;;;;54.20;47.55;;;;;;;;;;10132540;28;20082;-74
2023/12/29 00:48:11;;;;;;;62.13;52.03;;;;;;;;;;10130428;28;20124;-75
2023/12/29 00:53:03;;;;;;;59.95;50.58;;;;;;;;;;10106583;28;20391;-77
2023/12/29 00:57:55;;;;;;;56.53;50.13;;;;;;;;;;10108783;28;20045;-75
2023/12/29 01:02:47;;;;;;;55.00;46.13;;;;;;;;;;10107202;28;20053;-75
2023/12/29 01:07:39;;;;;;;53.65;47.55;;;;;;;;;;10119971;28;20683;-75
2023/12/29 01:12:31;;;;;;;57.63;47.25;;;;;;;;;;10137389;28;20051;-75
2023/12/29 01:17:24;;;;;;;51.28;45.65;;;;;;;;;;10134866;28;20055;-74
2023/12/29 01:22:16;;;;;;;47.28;41.92;;;;;;;;;;10145189;28;20394;-75
2023/12/29 01:27:08;;;;;;;40.30;35.25;;;;;;;;;;10145451;28;20059;-75
2023/12/29 01:32:00;;;;;;;34.53;30.58;;;;;;;;;;10143233;28;20420;-75
2023/12/29 01:36:52;;;;;;;37.58;32.90;;;;;;;;;;10140021;28;20045;-75
2023/12/29 01:41:43;;;;;;;39.10;33.60;;;;;;;;;;10140122;28;20049;-75
2023/12/29 01:46:35;;;;;;;42.17;37.65;;;;;;;;;;10135395;28;20062;-75
2023/12/29 01:51:29;;;;;;;48.35;38.67;;;;;;;;;;10143207;28;20490;-76
2023/12/29 01:56:21;;;;;;;49.40;41.60;;;;;;;;;;10133418;28;20106;-75
2023/12/29 02:01:14;;;;;;;48.53;42.20;;;;;;;;;;10112666;28;20048;-75
2023/12/29 02:06:06;;;;;;;51.08;45.50;;;;;;;;;;10142824;28;20052;-75
2023/12/29 02:10:59;;;;;;;58.45;46.05;;;;;;;;;;10123868;28;20163;-75
2023/12/29 02:15:52;;;;;;;59.17;48.72;;;;;;;;;;10138445;28;20041;-75
2023/12/29 02:20:44;;;;;;;54.35;44.03;;;;;;;;;;10147021;28;20056;-75
2023/12/29 02:25:36;;;;;;;61.08;48.22;;;;;;;;;;10117431;28;20448;-78
2023/12/29 02:30:43;;;;;;;57.83;46.53;;;;;;;;;;10113269;28;20049;-78
2023/12/29 02:35:39;;;;;;;58.25;48.58;;;;;;;;;;10114083;28;20041;-75
2023/12/29 02:40:32;;;;;;;65.72;47.78;;;;;;;;;;10111692;28;20091;-78
2023/12/29 02:45:24;;;;;;;64.32;51.50;;;;;;;;;;10111509;28;20048;-77
2023/12/29 02:50:16;;;;;;;68.32;54.38;;;;;;;;;;10112989;28;20094;-75
2023/12/29 02:55:08;;;;;;;65.38;48.20;;;;;;;;;;10110020;28;20546;-75
2023/12/29 03:00:01;;;;;;;61.83;52.80;;;;;;;;;;10111444;28;20045;-75
2023/12/29 03:04:53;;;;;;;66.40;51.28;;;;;;;;;;10111615;28;20376;-75
2023/12/29 03:09:45;;;;;;;64.93;52.70;;;;;;;;;;10110231;28;20376;-75
2023/12/29 03:14:37;;;;;;;65.53;50.00;;;;;;;;;;10112300;28;20562;-75
2023/12/29 03:19:29;;;;;;;54.33;45.42;;;;;;;;;;10111574;28;20040;-75
2023/12/29 03:24:21;;;;;;;60.20;47.20;;;;;;;;;;10109479;28;20055;-75
2023/12/29 03:29:13;;;;;;;56.70;47.42;;;;;;;;;;10125121;28;20040;-75
2023/12/29 03:34:05;;;;;;;58.10;48.20;;;;;;;;;;10111340;28;20068;-75
2023/12/29 03:38:57;;;;;;;55.25;45.88;;;;;;;;;;10111500;28;20053;-75
2023/12/29 03:43:49;;;;;;;52.83;44.47;;;;;;;;;;10111324;28;20049;-78
2023/12/29 03:48:41;;;;;;;65.72;52.25;;;;;;;;;;10126696;28;20037;-75
2023/12/29 03:53:33;;;;;;;58.13;46.83;;;;;;;;;;10111462;28;20041;-75
2023/12/29 03:58:25;;;;;;;55.15;44.22;;;;;;;;;;10108303;28;20110;-77
2023/12/29 04:03:17;;;;;;;50.58;42.88;;;;;;;;;;10110640;28;20044;-78
2023/12/29 04:08:08;;;;;;;57.47;45.65;;;;;;;;;;10110594;28;20053;-75
2023/12/29 04:13:01;;;;;;;55.05;44.13;;;;;;;;;;10112193;28;20051;-78
2023/12/29 04:17:53;;;;;;;51.63;43.97;;;;;;;;;;10109646;28;20110;-75
2023/12/29 04:22:46;;;;;;;58.03;45.55;;;;;;;;;;10107652;28;20121;-75
2023/12/29 04:27:39;;;;;;;52.28;40.45;;;;;;;;;;10109449;28;20053;-74
2023/12/29 04:32:31;;;;;;;48.10;39.78;;;;;;;;;;10109222;28;20041;-75
2023/12/29 04:37:23;;;;;;;48.63;40.92;;;;;;;;;;10109059;28;20037;-74
2023/12/29 04:42:17;;;;;;;52.22;39.45;;;;;;;;;;10107335;28;20467;-74
2023/12/29 04:47:09;;;;;;;48.85;41.20;;;;;;;;;;10108714;28;20057;-74
2023/12/29 04:52:01;;;;;;;45.90;37.50;;;;;;;;;;10108735;28;20052;-75
2023/12/29 04:56:53;;;;;;;44.30;37.22;;;;;;;;;;10106385;28;20441;-74
2023/12/29 05:01:45;;;;;;;48.53;36.22;;;;;;;;;;10109188;28;20060;-75
2023/12/29 05:06:37;;;;;;;41.58;34.05;;;;;;;;;;10107233;28;20428;-75
2023/12/29 05:11:30;;;;;;;35.15;30.05;;;;;;;;;;10106546;28;20046;-74
2023/12/29 05:16:21;;;;;;;31.67;27.98;;;;;;;;;;10107996;28;20120;-75
2023/12/29 05:21:17;;;;;;;37.22;32.78;;;;;;;;;;10107261;28;20476;-74
2023/12/29 05:26:09;;;;;;;37.33;30.95;;;;;;;;;;10107190;28;20696;-74
2023/12/29 05:31:03;;;;;;;33.10;26.58;;;;;;;;;;10107155;28;20049;-74
2023/12/29 05:35:55;;;;;;;30.73;26.63;;;;;;;;;;10104872;28;20069;-75
2023/12/29 05:40:47;;;;;;;30.40;23.10;;;;;;;;;;10108635;28;20398;-74
2023/12/29 05:45:39;;;;;;;30.00;25.20;;;;;;;;;;10106327;28;20041;-74
2023/12/29 05:50:31;;;;;;;29.42;23.95;;;;;;;;;;10106628;28;20518;-74
2023/12/29 05:55:23;;;;;;;27.40;23.85;;;;;;;;;;10106665;28;20471;-74
2023/12/29 06:00:15;;;;;;;34.72;28.30;;;;;;;;;;10106085;28;20037;-74
2023/12/29 06:05:08;;;;;;;26.50;23.17;;;;;;;;;;10106789;28;20045;-74
2023/12/29 06:10:00;;;;;;;26.42;20.25;;;;;;;;;;10105859;28;20123;-74
2023/12/29 06:14:52;;;;;;;23.33;20.88;;;;;;;;;;10106654;28;20045;-74
2023/12/29 06:19:44;;;;;;;21.90;19.55;;;;;;;;;;10104564;28;20134;-77
2023/12/29 06:24:36;;;;;;;22.05;19.63;;;;;;;;;;10105991;28;20083;-74
2023/12/29 06:29:28;;;;;;;35.70;31.92;;;;;;;;;;10103526;28;20063;-74
2023/12/29 06:34:20;;;;;;;127.43;107.35;;;;;;;;;;10105777;28;20045;-77
2023/12/29 06:39:12;;;;;;;28.55;25.55;;;;;;;;;;10104262;28;20398;-78
2023/12/29 06:44:04;;;;;;;27.17;20.80;;;;;;;;;;10105967;28;20041;-78
2023/12/29 06:48:56;;;;;;;33.53;27.67;;;;;;;;;;10104405;28;20041;-78
2023/12/29 06:53:48;;;;;;;26.60;21.95;;;;;;;;;;10106003;28;20037;-78
2023/12/29 06:58:41;;;;;;;40.78;31.27;;;;;;;;;;10104411;28;20049;-78
2023/12/29 07:03:33;;;;;;;27.60;23.35;;;;;;;;;;10105467;28;20389;-76
2023/12/29 07:08:25;;;;;;;32.53;23.60;;;;;;;;;;10109204;28;20052;-75
2023/12/29 07:13:17;;;;;;;28.67;23.80;;;;;;;;;;10112650;28;20395;-74
2023/12/29 07:18:09;;;;;;;27.70;22.23;;;;;;;;;;10111260;28;20049;-75
2023/12/29 07:23:01;;;;;;;59.72;42.92;;;;;;;;;;10113535;28;20044;-74
2023/12/29 07:27:53;;;;;;;41.83;35.35;;;;;;;;;;10112058;28;20067;-74
2023/12/29 07:32:45;;;;;;;24.80;22.10;;;;;;;;;;10111683;28;20037;-74
2023/12/29 07:37:37;;;;;;;26.88;22.55;;;;;;;;;;10110892;28;20033;-77
2023/12/29 07:42:29;;;;;;;28.25;22.73;;;;;;;;;;10115430;28;20102;-78
2023/12/29 07:47:21;;;;;;;24.38;18.95;;;;;;;;;;10110478;28;20128;-75
2023/12/29 07:52:12;;;;;;;22.63;19.02;;;;;;;;;;10111442;28;20037;-77
2023/12/29 07:57:05;;;;;;;29.73;19.73;;;;;;;;;;10124212;28;20135;-77
2023/12/29 08:01:57;;;;;;;21.00;18.20;;;;;;;;;;10122102;28;20053;-78
2023/12/29 08:06:49;;;;;;;24.17;21.25;;;;;;;;;;10145579;28;20177;-77
2023/12/29 08:11:42;;;;;;;20.95;18.30;;;;;;;;;;10127732;28;20037;-77
2023/12/29 08:16:40;;;;;;;21.58;16.52;;;;;;;;;;10143032;28;20040;-77
2023/12/29 08:21:32;;;;;;;26.92;19.45;;;;;;;;;;10138865;28;20476;-74
2023/12/29 08:26:24;;;;;;;23.45;18.17;;;;;;;;;;10120123;28;20365;-76
2023/12/29 08:31:19;;;;;;;23.77;17.25;;;;;;;;;;10138726;28;20486;-74
2023/12/29 08:36:13;;;;;;;20.35;17.00;;;;;;;;;;10141593;28;20106;-78
2023/12/29 08:41:05;;;;;;;31.90;19.92;;;;;;;;;;10122543;28;20052;-78
2023/12/29 08:45:58;;;;;;;29.98;22.98;;;;;;;;;;10123080;28;20083;-78
2023/12/29 08:50:49;;;;;;;31.02;23.92;;;;;;;;;;10137699;28;20041;-77
2023/12/29 08:55:42;;;;;;;37.60;31.48;;;;;;;;;;10132470;28;20036;-77
2023/12/29 09:00:34;;;;;;;44.78;35.00;;;;;;;;;;10131593;28;20048;-74
2023/12/29 09:05:26;;;;;;;40.05;31.70;;;;;;;;;;10138031;28;20037;-74
2023/12/29 09:10:18;;;;;;;44.63;37.47;;;;;;;;;;10134458;28;20380;-77
2023/12/29 09:15:10;;;;;;;46.38;34.92;;;;;;;;;;10126699;28;20047;-77
2023/12/29 09:20:03;;;;;;;42.22;32.83;;;;;;;;;;10119067;28;20044;-77
2023/12/29 09:25:02;;;;;;;37.28;31.42;;;;;;;;;;10140546;28;20044;-76
2023/12/29 09:29:54;;;;;;;29.77;22.70;;;;;;;;;;10127200;28;20037;-77
2023/12/29 09:34:46;;;;;;;35.45;26.65;;;;;;;;;;10139462;28;20094;-77
2023/12/29 09:39:37;;;;;;;40.25;32.45;;;;;;;;;;10112378;28;20044;-74
2023/12/29 09:44:31;;;;;;;42.92;35.40;;;;;;;;;;10120540;28;20114;-77
2023/12/29 09:49:24;;;;;;;54.35;42.38;;;;;;;;;;10126390;28;20055;-74
2023/12/29 09:54:16;;;;;;;49.70;39.08;;;;;;;;;;10143615;28;20478;-74
2023/12/29 09:59:11;;;;;;;58.15;43.67;;;;;;;;;;10125909;28;20067;-74
2023/12/29 10:04:04;;;;;;;48.00;41.08;;;;;;;;;;10142151;28;20074;-74
2023/12/29 10:08:56;;;;;;;48.35;37.75;;;;;;;;;;10140959;28;20070;-74
2023/12/29 10:13:50;;;;;;;52.15;43.38;;;;;;;;;;10138789;28;20139;-74
2023/12/29 10:18:46;;;;;;;44.17;37.85;;;;;;;;;;10139884;28;20438;-74
2023/12/29 10:23:43;;;;;;;35.58;31.67;;;;;;;;;;10142648;28;20097;-74
2023/12/29 10:28:35;;;;;;;39.80;33.30;;;;;;;;;;10142585;28;20352;-77
2023/12/29 10:33:30;;;;;;;36.78;29.35;;;;;;;;;;10136066;28;20037;-78
2023/12/29 10:38:22;;;;;;;38.45;32.00;;;;;;;;;;10133900;28;20041;-76
2023/12/29 10:43:22;;;;;;;37.75;32.50;;;;;;;;;;10145018;28;20074;-76
2023/12/29 10:48:22;;;;;;;36.97;32.10;;;;;;;;;;10116949;28;20052;-76
2023/12/29 10:53:15;;;;;;;47.28;36.63;;;;;;;;;;10130722;28;20052;-76
2023/12/29 10:58:06;;;;;;;38.47;32.33;;;;;;;;;;10140970;28;20044;-76
2023/12/29 11:02:59;;;;;;;35.20;30.30;;;;;;;;;;10119374;28;20053;-76
2023/12/29 11:07:54;;;;;;;32.45;28.17;;;;;;;;;;10122084;28;20098;-76
2023/12/29 11:12:47;;;;;;;31.58;26.67;;;;;;;;;;10116412;28;20056;-76
2023/12/29 11:17:49;;;;;;;34.40;27.85;;;;;;;;;;10121043;28;20367;-76
2023/12/29 11:22:41;;;;;;;32.95;25.65;;;;;;;;;;10148023;28;20043;-76
2023/12/29 11:27:33;;;;;;;25.10;22.45;;;;;;;;;;10138925;28;20148;-76
2023/12/29 11:32:36;;;;;;;29.15;24.80;;;;;;;;;;10143446;28;20055;-77
2023/12/29 11:38:08;;;;;;;28.33;24.75;;;;;;;;;;10134502;28;20059;-76
2023/12/29 11:43:04;;;;;;;26.48;23.70;;;;;;;;;;10138087;28;20373;-76
2023/12/29 11:47:57;;;;;;;39.63;24.90;;;;;;;;;;10138622;28;20080;-77
2023/12/29 11:52:49;;;;;;;30.20;25.58;;;;;;;;;;10137723;28;20417;-76
2023/12/29 11:57:41;;;;;;;27.60;21.20;;;;;;;;;;10137039;28;20090;-77
2023/12/29 12:02:33;;;;;;;27.45;24.25;;;;;;;;;;10156912;28;20060;-77
2023/12/29 12:07:25;;;;;;;28.55;23.85;;;;;;;;;;10134605;28;20090;-77
2023/12/29 12:12:43;;;;;;;25.08;22.42;;;;;;;;;;10120933;28;20183;-78
2023/12/29 12:17:36;;;;;;;29.73;23.20;;;;;;;;;;10115078;28;20055;-76
2023/12/29 12:22:31;;;;;;;27.00;22.70;;;;;;;;;;10113632;28;20048;-77
2023/12/29 12:27:27;;;;;;;29.88;22.92;;;;;;;;;;10111975;28;20045;-77
2023/12/29 12:32:19;;;;;;;29.10;22.48;;;;;;;;;;10122737;28;20060;-77
2023/12/29 12:37:11;;;;;;;27.48;23.77;;;;;;;;;;10120177;28;20125;-77
2023/12/29 12:42:03;;;;;;;26.45;23.70;;;;;;;;;;10121242;28;20349;-77
2023/12/29 12:46:57;;;;;;;27.58;22.88;;;;;;;;;;10118113;28;20037;-77
2023/12/29 12:51:49;;;;;;;30.58;26.83;;;;;;;;;;10137635;28;20099;-77
2023/12/29 12:56:42;;;;;;;30.85;25.55;;;;;;;;;;10112497;28;20051;-77
2023/12/29 13:01:36;;;;;;;28.98;24.80;;;;;;;;;;10122012;28;20056;-77
2023/12/29 13:06:29;;;;;;;26.60;23.65;;;;;;;;;;10115493;28;20077;-77
2023/12/29 13:11:22;;;;;;;29.25;23.08;;;;;;;;;;10118624;28;20041;-77
2023/12/29 13:16:14;;;;;;;29.38;24.13;;;;;;;;;;10123072;28;20188;-78
2023/12/29 13:21:06;;;;;;;26.40;23.60;;;;;;;;;;10131147;28;20060;-77
2023/12/29 13:26:02;;;;;;;29.73;21.88;;;;;;;;;;10136439;28;20048;-77
2023/12/29 13:30:55;;;;;;;31.20;23.10;;;;;;;;;;10153081;28;20165;-76
2023/12/29 13:35:54;;;;;;;26.23;22.92;;;;;;;;;;10154278;28;20080;-78
2023/12/29 13:41:18;;;;;;;28.08;22.73;;;;;;;;;;10133265;28;20376;-76
2023/12/29 13:46:11;;;;;;;26.75;22.77;;;;;;;;;;10133098;28;20036;-76
2023/12/29 13:51:03;;;;;;;26.98;22.05;;;;;;;;;;10127685;28;20037;-76
2023/12/29 13:56:09;;;;;;;25.52;22.83;;;;;;;;;;10112436;28;20456;-76
2023/12/29 14:01:04;;;;;;;29.48;24.77;;;;;;;;;;10134780;28;20050;-77
2023/12/29 14:06:00;;;;;;;32.15;24.60;;;;;;;;;;10132371;28;20459;-77
2023/12/29 14:10:53;;;;;;;29.30;23.45;;;;;;;;;;10132362;28;20048;-77
2023/12/29 14:15:51;;;;;;;25.30;22.55;;;;;;;;;;10136658;28;20068;-77
2023/12/29 14:20:44;;;;;;;25.83;23.10;;;;;;;;;;10124114;28;20376;-77
2023/12/29 14:25:37;;;;;;;33.65;23.85;;;;;;;;;;10144667;28;20086;-76
2023/12/29 14:30:31;;;;;;;29.02;23.15;;;;;;;;;;10142497;28;20052;-77
2023/12/29 14:35:23;;;;;;;26.65;22.33;;;;;;;;;;10134840;28;20083;-77
2023/12/29 14:40:15;;;;;;;25.58;22.30;;;;;;;;;;10135776;28;20154;-75
2023/12/29 14:45:09;;;;;;;29.27;23.42;;;;;;;;;;10135279;28;20075;-76
2023/12/29 14:50:01;;;;;;;31.13;25.15;;;;;;;;;;10135097;28;20075;-77
2023/12/29 14:54:53;;;;;;;26.08;22.27;;;;;;;;;;10139464;28;20136;-77
2023/12/29 14:59:45;;;;;;;25.23;20.98;;;;;;;;;;10142225;28;20051;-77
2023/12/29 15:04:36;;;;;;;24.17;19.83;;;;;;;;;;10134578;28;20076;-80
2023/12/29 15:09:29;;;;;;;27.45;22.33;;;;;;;;;;10130863;28;20165;-77
2023/12/29 15:14:21;;;;;;;22.92;20.48;;;;;;;;;;10140463;28;20037;-79
2023/12/29 15:19:13;;;;;;;25.25;21.92;;;;;;;;;;10134783;28;20712;-77
2023/12/29 15:24:06;;;;;;;31.88;23.80;;;;;;;;;;10136605;28;20052;-80
2023/12/29 15:28:58;;;;;;;25.38;22.35;;;;;;;;;;10145166;28;20091;-79
2023/12/29 15:33:52;;;;;;;27.40;21.02;;;;;;;;;;10135620;28;20072;-78
2023/12/29 15:38:44;;;;;;;22.35;19.95;;;;;;;;;;10145333;28;20040;-77
2023/12/29 15:43:36;;;;;;;27.08;20.90;;;;;;;;;;10136196;28;20138;-79
2023/12/29 15:48:28;;;;;;;26.92;23.23;;;;;;;;;;10131583;28;20349;-75
2023/12/29 15:53:20;;;;;;;34.15;27.60;;;;;;;;;;10128361;28;20123;-82
2023/12/29 15:58:12;;;;;;;28.05;23.38;;;;;;;;;;10134388;28;20048;-82
2023/12/29 16:03:04;;;;;;;32.03;28.50;;;;;;;;;;10115096;28;20353;-76
2023/12/29 16:07:56;;;;;;;38.83;26.52;;;;;;;;;;10137352;28;20040;-84
2023/12/29 16:12:48;;;;;;;33.65;23.88;;;;;;;;;;10127156;28;20041;-74
2023/12/29 16:17:40;;;;;;;38.88;30.70;;;;;;;;;;10140926;28;20193;-73
2023/12/29 16:22:32;;;;;;;40.70;30.20;;;;;;;;;;10142996;28;20040;-73
2023/12/29 16:27:24;;;;;;;48.80;36.55;;;;;;;;;;10141991;28;20051;-76
2023/12/29 16:32:21;;;;;;;39.00;30.55;;;;;;;;;;10126885;28;20107;-77
2023/12/29 16:37:13;;;;;;;40.22;28.95;;;;;;;;;;10142905;28;20482;-74
2023/12/29 16:42:06;;;;;;;31.05;24.70;;;;;;;;;;10116770;28;20459;-74
2023/12/29 16:46:58;;;;;;;34.67;26.55;;;;;;;;;;10140783;28;20365;-76
2023/12/29 16:51:49;;;;;;;32.35;25.95;;;;;;;;;;10135800;28;20120;-81
2023/12/29 16:56:41;;;;;;;36.88;26.50;;;;;;;;;;10115969;28;20079;-81
2023/12/29 17:01:33;;;;;;;32.97;25.85;;;;;;;;;;10126525;28;20372;-80
2023/12/29 17:06:25;;;;;;;34.83;29.70;;;;;;;;;;10132739;28;20086;-81
2023/12/29 17:11:17;;;;;;;40.85;29.13;;;;;;;;;;10129876;28;20187;-79
2023/12/29 17:16:09;;;;;;;45.15;34.58;;;;;;;;;;10134614;28;20067;-80
2023/12/29 17:21:05;;;;;;;37.75;28.23;;;;;;;;;;10137665;28;20143;-81
2023/12/29 17:25:58;;;;;;;31.23;25.98;;;;;;;;;;10133000;28;20352;-76
2023/12/29 17:30:50;;;;;;;35.92;25.67;;;;;;;;;;10139884;28;20048;-76
2023/12/29 17:35:42;;;;;;;36.90;28.02;;;;;;;;;;10124688;28;20041;-80
2023/12/29 17:40:34;;;;;;;32.72;26.65;;;;;;;;;;10129258;28;20422;-79
2023/12/29 17:45:26;;;;;;;28.58;23.73;;;;;;;;;;10129972;28;20059;-80
2023/12/29 17:50:18;;;;;;;28.50;23.45;;;;;;;;;;10140839;28;20044;-79
2023/12/29 17:55:10;;;;;;;26.17;22.13;;;;;;;;;;10137903;28;20044;-73
2023/12/29 18:00:03;;;;;;;29.08;24.83;;;;;;;;;;10133602;28;20480;-74
2023/12/29 18:04:55;;;;;;;40.75;32.45;;;;;;;;;;10134338;28;20439;-75
2023/12/29 18:09:48;;;;;;;37.25;30.52;;;;;;;;;;10140475;28;20341;-72
2023/12/29 18:14:40;;;;;;;23.17;20.58;;;;;;;;;;10119662;28;20037;-73
2023/12/29 18:19:32;;;;;;;29.40;20.88;;;;;;;;;;10132809;28;20040;-77
2023/12/29 18:24:24;;;;;;;24.92;21.25;;;;;;;;;;10124910;28;20473;-73
2023/12/29 18:29:16;;;;;;;28.88;23.90;;;;;;;;;;10138374;28;20056;-73
2023/12/29 18:34:09;;;;;;;38.67;29.90;;;;;;;;;;10133345;28;20053;-75
2023/12/29 18:39:02;;;;;;;37.63;32.10;;;;;;;;;;10136406;28;20048;-73
2023/12/29 18:43:53;;;;;;;38.90;31.50;;;;;;;;;;10107115;28;20072;-80
2023/12/29 18:48:45;;;;;;;44.42;35.50;;;;;;;;;;10106935;28;20495;-86
2023/12/29 18:53:38;;;;;;;42.63;36.25;;;;;;;;;;10106523;28;20436;-74
2023/12/29 18:58:30;;;;;;;34.33;26.98;;;;;;;;;;10105683;28;20123;-74
2023/12/29 19:03:21;;;;;;;28.83;23.35;;;;;;;;;;10119919;28;20094;-75
2023/12/29 19:08:13;;;;;;;27.67;20.23;;;;;;;;;;10115216;28;20052;-74
2023/12/29 19:13:05;;;;;;;24.73;22.10;;;;;;;;;;10131372;28;20229;-74
2023/12/29 19:18:00;;;;;;;24.83;20.95;;;;;;;;;;10115882;28;20079;-75
2023/12/29 19:22:52;;;;;;;27.83;22.92;;;;;;;;;;10122784;28;20060;-74
2023/12/29 19:27:44;;;;;;;26.08;22.58;;;;;;;;;;10127705;28;20468;-75
2023/12/29 19:32:37;;;;;;;25.23;20.00;;;;;;;;;;10112219;28;20175;-74
2023/12/29 19:37:29;;;;;;;23.67;20.98;;;;;;;;;;10114978;28;20037;-74
2023/12/29 19:42:21;;;;;;;27.55;22.77;;;;;;;;;;10111800;28;20364;-74
2023/12/29 19:47:13;;;;;;;27.98;21.98;;;;;;;;;;10112782;28;20048;-76
2023/12/29 19:52:05;;;;;;;31.55;24.77;;;;;;;;;;10120493;28;20076;-76
2023/12/29 19:56:57;;;;;;;38.05;26.98;;;;;;;;;;10121002;28;20032;-76
2023/12/29 20:01:49;;;;;;;32.67;28.58;;;;;;;;;;10121989;28;20045;-75
2023/12/29 20:06:41;;;;;;;34.55;27.27;;;;;;;;;;10121546;28;20040;-77
2023/12/29 20:11:40;;;;;;;41.38;32.30;;;;;;;;;;10113930;28;20036;-76
2023/12/29 20:16:32;;;;;;;30.20;26.95;;;;;;;;;;10127898;28;20045;-76
2023/12/29 20:21:25;;;;;;;41.38;30.92;;;;;;;;;;10122956;28;20055;-75
2023/12/29 20:26:24;;;;;;;40.50;30.95;;;;;;;;;;10121421;28;20040;-76
2023/12/29 20:31:32;;;;;;;42.03;31.92;;;;;;;;;;10105363;28;20103;-76
2023/12/29 20:36:25;;;;;;;38.20;30.20;;;;;;;;;;10125331;28;20127;-80
2023/12/29 20:41:23;;;;;;;39.70;30.98;;;;;;;;;;10120444;28;20098;-79
2023/12/29 20:46:15;;;;;;;35.63;28.50;;;;;;;;;;10121932;28;20045;-79
2023/12/29 20:51:10;;;;;;;44.00;35.35;;;;;;;;;;10107077;28;20525;-79
2023/12/29 20:56:10;;;;;;;40.35;33.90;;;;;;;;;;10124492;28;20395;-79
2023/12/29 21:01:04;;;;;;;33.60;29.95;;;;;;;;;;10121046;28;20544;-79
2023/12/29 21:05:56;;;;;;;37.75;30.80;;;;;;;;;;10118051;28;20044;-79
2023/12/29 21:10:50;;;;;;;40.22;30.55;;;;;;;;;;10115438;28;20041;-79
2023/12/29 21:15:42;;;;;;;39.00;33.83;;;;;;;;;;10125153;28;20048;-79
2023/12/29 21:20:34;;;;;;;40.50;31.17;;;;;;;;;;10115801;28;20443;-77
2023/12/29 21:25:25;;;;;;;39.20;31.98;;;;;;;;;;10119677;28;20369;-78
2023/12/29 21:30:18;;;;;;;43.15;34.63;;;;;;;;;;10115333;28;20068;-78
2023/12/29 21:35:11;;;;;;;41.47;34.33;;;;;;;;;;10116009;28;20044;-78
2023/12/29 21:40:03;;;;;;;43.05;34.35;;;;;;;;;;10118304;28;20136;-79
2023/12/29 21:44:55;;;;;;;43.60;32.83;;;;;;;;;;10111040;28;20116;-79
2023/12/29 21:49:47;;;;;;;42.53;33.92;;;;;;;;;;10122605;28;20240;-79
2023/12/29 21:54:42;;;;;;;38.47;33.28;;;;;;;;;;10105648;28;20672;-80
2023/12/29 21:59:34;;;;;;;38.78;33.28;;;;;;;;;;10112558;28;20038;-78
2023/12/29 22:04:26;;;;;;;39.70;33.20;;;;;;;;;;10101348;28;20431;-80
2023/12/29 22:09:18;;;;;;;38.83;33.60;;;;;;;;;;10106169;28;20353;-80
2023/12/29 22:14:10;;;;;;;44.47;36.70;;;;;;;;;;10106362;28;20051;-80
2023/12/29 22:19:02;;;;;;;45.95;35.13;;;;;;;;;;10101296;28;20064;-78
2023/12/29 22:23:54;;;;;;;46.78;36.45;;;;;;;;;;10107441;28;20051;-79
2023/12/29 22:28:47;;;;;;;41.38;33.47;;;;;;;;;;10105911;28;20051;-79
2023/12/29 22:33:46;;;;;;;48.35;35.53;;;;;;;;;;10105731;28;20037;-79
2023/12/29 22:38:39;;;;;;;50.78;39.78;;;;;;;;;;10109078;28;20136;-79
2023/12/29 22:43:31;;;;;;;43.15;36.42;;;;;;;;;;10119809;28;20059;-78
2023/12/29 22:48:22;;;;;;;41.95;35.30;;;;;;;;;;10119385;28;20033;-79
2023/12/29 22:53:14;;;;;;;47.53;36.35;;;;;;;;;;10114096;28;20048;-79
2023/12/29 22:58:06;;;;;;;46.60;36.28;;;;;;;;;;10112073;28;20052;-80
2023/12/29 23:02:58;;;;;;;40.92;35.83;;;;;;;;;;10113066;28;20339;-79
2023/12/29 23:07:50;;;;;;;47.67;36.25;;;;;;;;;;10119076;28;20037;-79
2023/12/29 23:12:42;;;;;;;47.05;39.92;;;;;;;;;;10115790;28;20361;-79
2023/12/29 23:17:34;;;;;;;45.42;39.45;;;;;;;;;;10112138;28;20372;-80
2023/12/29 23:22:26;;;;;;;48.33;36.17;;;;;;;;;;10116828;28;20048;-79
2023/12/29 23:27:17;;;;;;;46.55;37.60;;;;;;;;;;10112285;28;20041;-79
2023/12/29 23:32:09;;;;;;;48.40;40.22;;;;;;;;;;10112315;28;20084;-83
2023/12/29 23:37:01;;;;;;;41.65;34.20;;;;;;;;;;10110220;28;20484;-78
2023/12/29 23:41:53;;;;;;;43.95;37.03;;;;;;;;;;10124597;28;20063;-79
2023/12/29 23:46:45;;;;;;;43.70;35.65;;;;;;;;;;10140434;28;20094;-79
2023/12/29 23:51:38;;;;;;;43.78;36.42;;;;;;;;;;10146748;28;20048;-79
2023/12/29 23:56:29;;;;;;;45.22;35.15;;;;;;;;;;10136455;28;20048;-79
